11:22
Airports
History
Links
Donate
Help keep this website running!
PayPal
Bitcoin
This page is community maintained. The information is intended for PC simulator navigation or reference.
Always use approved charts for navigation.
H16
Bessie Rla
Bessie Rla (H16)
Benton, Illinois, United States (62812)
4
Lat/Lng:37° 59' 55.18" N / 88° 49' 5.23" W
37.99866 / -88.818119
Elevation:455'ft / 139mMSL
ID / ICAO:H16
Runways:1
Longest:36-18
Grass 370m / 1,214ft
Nearby Weather11:15 GMT 2017-10-18
Nearby weather at KMWA, Williamson County Rgnl located 19.9 nautical miles from H16
Altimeter: 30.25
Visibility: 10.0 statute miles
Wind: 0 knots (from 000°)
Temp: 8°c / 46°f
Humidity: 100.0%

METAR: KMWA 181115Z AUTO 00000KT 10SM CLR 08/08 A3025 RMK AO2 T00780075

(Powered by phpweather)
Nearby VORs <50NM
Nearby NDBs
Runway 36 / 18
Dimensions:370.1 x 21.3m 1214' x 70'ft
Surface:Grass
Runway 36 [A]Runway 18 [B]
Heading:001°TH 181°TH
Lat:
Lng:
37° 59' 49.25"N
88° 49' 5.36"W
38° 0' 1.1"N
88° 49' 5.1"W
User Notes and Comments
37° 59' 55.18" N / 88° 49' 5.23" W
Distance To
Airport ID:
Nearby Airports
(U) Benton Muni 6.4 NM
H96 W 276°
(R) Gelfius Intl 13.1 NM
27IS NE 37°
4 Adams - Private 18.6 NM
9H2 WSW 249°
(U) Harrisburg-raleigh 19.5 NM
KHSB SE 131°
(C) Williamson County Rgnl 19.9 NM
KMWA ( WX ) SSW 212°
4 Hemmer Rla 21.0 NM
H60 W 266°
(U) Mount Vernon 22.5 NM
KMVN ( WX ) N 354°
VFR Chart
Flight Planning at SkyVector.com